Time,TemperatureF,DewpointF,PressureIn,WindDirection,WindDirectionDegrees,WindSpeedMPH,WindSpeedGustMPH,Humidity,HourlyPrecipIn,Conditions,Clouds,dailyrainin,SoftwareType,DateUTC
2013-05-27 00:00:00,58.3,57.2,29.99,ENE,73,1.0,1.0,96,0.00,,,1.92,Wunderground v.1.15,2013-05-27 05:00:00,
2013-05-27 00:05:00,58.3,57.2,30.00,SE,133,1.0,1.0,96,0.00,,,1.92,Wunderground v.1.15,2013-05-27 05:05:00,
2013-05-27 00:15:00,58.3,56.9,30.00,SE,143,1.0,1.0,95,0.00,,,1.92,Wunderground v.1.15,2013-05-27 05:15:00,
2013-05-27 00:20:00,58.1,56.7,29.99,ESE,114,1.0,1.0,95,0.00,,,0.00,Wunderground v.1.15,2013-05-27 05:20:00,
2013-05-27 00:25:00,58.1,56.7,29.99,ESE,116,0.0,0.0,95,0.00,,,0.00,Wunderground v.1.15,2013-05-27 05:25:00,
2013-05-27 00:35:00,58.1,56.7,29.98,SE,124,1.0,1.0,95,0.00,,,0.00,Wunderground v.1.15,2013-05-27 05:35:00,
2013-05-27 00:40:00,58.1,56.7,29.98,SSE,157,1.0,5.0,95,0.00,,,0.00,Wunderground v.1.15,2013-05-27 05:40:00,
2013-05-27 00:50:00,58.1,56.7,29.98,ESE,121,2.0,2.0,95,0.00,,,0.00,Wunderground v.1.15,2013-05-27 05:50:00,
2013-05-27 00:55:00,58.1,56.4,29.98,East,86,1.0,2.0,94,0.00,,,0.00,Wunderground v.1.15,2013-05-27 05:55:00,
2013-05-27 01:00:00,58.1,56.4,29.98,SE,140,1.0,2.0,94,0.00,,,0.00,Wunderground v.1.15,2013-05-27 06:00:00,
2013-05-27 01:05:00,58.1,56.4,29.98,ENE,66,1.0,1.0,94,0.00,,,0.00,Wunderground v.1.15,2013-05-27 06:05:00,
2013-05-27 01:15:00,58.1,56.4,29.98,SE,145,1.0,1.0,94,0.00,,,0.00,Wunderground v.1.15,2013-05-27 06:15:00,
2013-05-27 01:30:00,58.0,56.3,29.98,SE,126,0.0,0.0,94,0.00,,,0.00,Wunderground v.1.15,2013-05-27 06:30:00,
2013-05-27 01:35:00,58.0,56.3,29.96,SSE,147,0.0,0.0,94,0.00,,,0.00,Wunderground v.1.15,2013-05-27 06:35:00,
2013-05-27 01:50:00,58.0,56.0,29.95,NE,56,0.0,0.0,93,0.00,,,0.00,Wunderground v.1.15,2013-05-27 06:50:00,
2013-05-27 01:55:00,58.0,56.0,29.95,NE,42,0.0,0.0,93,0.00,,,0.00,Wunderground v.1.15,2013-05-27 06:55:00,
2013-05-27 02:00:00,58.0,56.0,29.95,ESE,112,1.0,2.0,93,0.00,,,0.00,Wunderground v.1.15,2013-05-27 07:00:00,
2013-05-27 02:10:00,57.8,55.8,29.95,SE,145,0.0,6.0,93,0.00,,,0.00,Wunderground v.1.15,2013-05-27 07:10:00,
2013-05-27 02:20:00,57.8,55.8,29.95,ESE,106,1.0,2.0,93,0.00,,,0.00,Wunderground v.1.15,2013-05-27 07:20:00,
2013-05-27 02:25:00,57.8,55.8,29.95,South,181,0.0,2.0,93,0.00,,,0.00,Wunderground v.1.15,2013-05-27 07:25:00,
2013-05-27 02:30:00,57.8,55.8,29.95,SE,144,0.0,3.0,93,0.00,,,0.00,Wunderground v.1.15,2013-05-27 07:30:00,
2013-05-27 02:35:00,57.8,55.8,29.95,East,92,1.0,3.0,93,0.00,,,0.00,Wunderground v.1.15,2013-05-27 07:35:00,
2013-05-27 02:40:00,57.8,55.8,29.95,ESE,119,1.0,1.0,93,0.00,,,0.00,Wunderground v.1.15,2013-05-27 07:40:00,
2013-05-27 02:45:00,57.8,55.8,29.95,ESE,119,0.0,1.0,93,0.00,,,0.00,Wunderground v.1.15,2013-05-27 07:45:00,
2013-05-27 02:50:00,57.8,55.8,29.96,ESE,119,1.0,1.0,93,0.00,,,0.00,Wunderground v.1.15,2013-05-27 07:50:00,
2013-05-27 02:55:00,57.8,55.8,29.96,SSE,152,1.0,1.0,93,0.00,,,0.00,Wunderground v.1.15,2013-05-27 07:55:00,
2013-05-27 03:00:00,57.8,56.1,29.96,South,175,0.0,0.0,94,0.00,,,0.00,Wunderground v.1.15,2013-05-27 08:00:00,
2013-05-27 03:05:00,58.0,56.3,29.96,SE,143,0.0,0.0,94,0.00,,,0.00,Wunderground v.1.15,2013-05-27 08:05:00,
2013-05-27 03:10:00,58.0,56.3,29.96,SE,143,0.0,0.0,94,0.00,,,0.00,Wunderground v.1.15,2013-05-27 08:10:00,
2013-05-27 03:15:00,58.0,56.3,29.96,SE,141,0.0,0.0,94,0.00,,,0.00,Wunderground v.1.15,2013-05-27 08:15:00,
2013-05-27 03:20:00,58.0,56.3,29.96,SE,141,0.0,0.0,94,0.00,,,0.00,Wunderground v.1.15,2013-05-27 08:20:00,
2013-05-27 03:25:00,58.0,56.3,29.96,SSE,148,0.0,0.0,94,0.00,,,0.00,Wunderground v.1.15,2013-05-27 08:25:00,
2013-05-27 03:35:00,58.1,56.4,29.94,East,85,0.0,0.0,94,0.00,,,0.00,Wunderground v.1.15,2013-05-27 08:35:00,
2013-05-27 03:40:00,58.1,56.7,29.94,SSE,148,0.0,0.0,95,0.00,,,0.00,Wunderground v.1.15,2013-05-27 08:40:00,
2013-05-27 03:50:00,58.1,56.7,29.92,SE,141,1.0,4.0,95,0.00,,,0.00,Wunderground v.1.15,2013-05-27 08:50:00,
2013-05-27 03:55:00,58.1,56.7,29.92,NNE,30,1.0,4.0,95,0.00,,,0.00,Wunderground v.1.15,2013-05-27 08:55:00,
2013-05-27 04:00:00,58.1,56.7,29.92,East,97,1.0,1.0,95,0.00,,,0.01,Wunderground v.1.15,2013-05-27 09:00:00,
2013-05-27 04:15:00,58.3,57.2,29.92,ESE,120,1.0,1.0,96,0.08,,,0.03,Wunderground v.1.15,2013-05-27 09:15:00,
2013-05-27 04:20:00,58.3,57.2,29.90,ENE,68,0.0,1.0,96,0.05,,,0.03,Wunderground v.1.15,2013-05-27 09:20:00,
2013-05-27 04:25:00,58.3,57.2,29.90,NE,49,0.0,0.0,96,0.00,,,0.03,Wunderground v.1.15,2013-05-27 09:25:00,
2013-05-27 04:30:00,58.4,57.3,29.90,NNE,28,0.0,0.0,96,0.00,,,0.03,Wunderground v.1.15,2013-05-27 09:30:00,
2013-05-27 04:35:00,58.4,57.3,29.91,NNE,23,0.0,0.0,96,0.00,,,0.03,Wunderground v.1.15,2013-05-27 09:35:00,
2013-05-27 04:40:00,58.4,57.3,29.91,NNE,23,0.0,2.0,96,0.00,,,0.03,Wunderground v.1.15,2013-05-27 09:40:00,
2013-05-27 04:50:00,58.4,57.3,29.91,SSE,160,0.0,0.0,96,0.00,,,0.03,Wunderground v.1.15,2013-05-27 09:50:00,
2013-05-27 04:55:00,58.4,57.3,29.91,East,83,0.0,0.0,96,0.00,,,0.03,Wunderground v.1.15,2013-05-27 09:55:00,
2013-05-27 05:00:00,58.3,57.2,29.91,NE,44,0.0,0.0,96,0.00,,,0.03,Wunderground v.1.15,2013-05-27 10:00:00,
2013-05-27 05:05:00,58.3,57.2,29.90,East,80,0.0,0.0,96,0.00,,,0.03,Wunderground v.1.15,2013-05-27 10:05:00,
2013-05-27 05:10:00,58.3,57.2,29.90,NE,40,0.0,0.0,96,0.00,,,0.03,Wunderground v.1.15,2013-05-27 10:10:00,
2013-05-27 05:20:00,58.4,57.6,29.90,ENE,69,0.0,0.0,97,0.00,,,0.03,Wunderground v.1.15,2013-05-27 10:20:00,
2013-05-27 05:25:00,58.4,57.6,29.90,SE,124,0.0,0.0,97,0.00,,,0.03,Wunderground v.1.15,2013-05-27 10:25:00,
2013-05-27 05:45:00,58.4,57.6,29.90,NNE,18,0.0,0.0,97,0.00,,,0.03,Wunderground v.1.15,2013-05-27 10:45:00,
2013-05-27 05:50:00,58.4,57.6,29.91,NNE,18,0.0,0.0,97,0.00,,,0.03,Wunderground v.1.15,2013-05-27 10:50:00,
2013-05-27 05:55:00,58.6,57.8,29.91,NNE,18,0.0,0.0,97,0.00,,,0.03,Wunderground v.1.15,2013-05-27 10:55:00,
2013-05-27 06:00:00,58.6,57.8,29.91,NNE,27,0.0,0.0,97,0.00,,,0.03,Wunderground v.1.15,2013-05-27 11:00:00,
2013-05-27 06:05:00,58.6,57.8,29.92,SSE,147,0.0,0.0,97,0.00,,,0.03,Wunderground v.1.15,2013-05-27 11:05:00,
2013-05-27 06:10:00,58.6,57.8,29.92,SSE,147,0.0,0.0,97,0.00,,,0.03,Wunderground v.1.15,2013-05-27 11:10:00,
2013-05-27 06:15:00,58.6,57.8,29.92,SSE,147,0.0,0.0,97,0.00,,,0.03,Wunderground v.1.15,2013-05-27 11:15:00,
2013-05-27 06:20:00,58.6,57.8,29.92,SSE,147,0.0,0.0,97,0.00,,,0.03,Wunderground v.1.15,2013-05-27 11:20:00,
2013-05-27 06:35:00,58.7,58.1,29.90,SE,145,0.0,0.0,98,0.00,,,0.03,Wunderground v.1.15,2013-05-27 11:35:00,
2013-05-27 06:45:00,58.7,57.9,29.90,East,90,0.0,0.0,97,0.00,,,0.03,Wunderground v.1.15,2013-05-27 11:45:00,
2013-05-27 06:55:00,58.9,58.3,29.92,East,90,0.0,0.0,98,0.00,,,0.03,Wunderground v.1.15,2013-05-27 11:55:00,
2013-05-27 07:05:00,58.9,58.1,29.92,East,90,0.0,0.0,97,0.00,,,0.03,Wunderground v.1.15,2013-05-27 12:05:00,
2013-05-27 07:10:00,58.9,58.1,29.92,East,90,0.0,0.0,97,0.00,,,0.03,Wunderground v.1.15,2013-05-27 12:10:00,
2013-05-27 07:15:00,58.9,58.1,29.92,East,96,0.0,0.0,97,0.00,,,0.03,Wunderground v.1.15,2013-05-27 12:15:00,
2013-05-27 07:30:00,59.2,58.6,29.92,SE,138,0.0,0.0,98,0.00,,,0.03,Wunderground v.1.15,2013-05-27 12:30:00,
2013-05-27 07:35:00,59.3,58.7,29.93,ESE,116,0.0,0.0,98,0.00,,,0.03,Wunderground v.1.15,2013-05-27 12:35:00,
2013-05-27 07:40:00,59.5,58.9,29.93,ESE,116,0.0,0.0,98,0.00,,,0.03,Wunderground v.1.15,2013-05-27 12:40:00,
2013-05-27 07:55:00,59.5,58.9,29.94,ESE,116,0.0,0.0,98,0.00,,,0.03,Wunderground v.1.15,2013-05-27 12:55:00,
2013-05-27 08:05:00,59.6,59.0,29.95,ESE,116,0.0,0.0,98,0.00,,,0.03,Wunderground v.1.15,2013-05-27 13:05:00,
2013-05-27 08:10:00,59.8,59.2,29.95,ESE,116,0.0,0.0,98,0.00,,,0.03,Wunderground v.1.15,2013-05-27 13:10:00,
2013-05-27 08:20:00,59.9,59.3,29.96,ESE,114,0.0,0.0,98,0.00,,,0.03,Wunderground v.1.15,2013-05-27 13:20:00,
2013-05-27 08:25:00,59.9,59.3,29.96,ESE,114,0.0,0.0,98,0.00,,,0.03,Wunderground v.1.15,2013-05-27 13:25:00,
2013-05-27 08:35:00,60.1,59.8,29.95,ESE,114,0.0,0.0,99,0.00,,,0.03,Wunderground v.1.15,2013-05-27 13:35:00,
2013-05-27 08:40:00,60.4,59.8,29.95,ESE,114,0.0,0.0,98,0.00,,,0.03,Wunderground v.1.15,2013-05-27 13:40:00,
2013-05-27 08:55:00,60.4,59.8,29.94,ESE,114,0.0,0.0,98,0.00,,,0.03,Wunderground v.1.15,2013-05-27 13:55:00,
2013-05-27 09:10:00,60.7,60.1,29.93,ESE,114,0.0,0.0,98,0.00,,,0.03,Wunderground v.1.15,2013-05-27 14:10:00,
2013-05-27 09:15:00,60.9,60.6,29.93,ESE,114,0.0,0.0,99,0.00,,,0.03,Wunderground v.1.15,2013-05-27 14:15:00,
2013-05-27 09:25:00,60.9,60.3,29.91,ESE,114,0.0,0.0,98,0.00,,,0.03,Wunderground v.1.15,2013-05-27 14:25:00,
2013-05-27 09:35:00,60.9,60.3,29.91,ESE,113,0.0,0.0,98,0.00,,,0.03,Wunderground v.1.15,2013-05-27 14:35:00,
2013-05-27 09:45:00,61.2,60.6,29.91,ESE,114,0.0,0.0,98,0.00,,,0.03,Wunderground v.1.15,2013-05-27 14:45:00,
2013-05-27 09:55:00,61.8,60.9,29.89,ESE,113,0.0,0.0,97,0.00,,,0.03,Wunderground v.1.15,2013-05-27 14:55:00,
2013-05-27 10:05:00,61.8,60.9,29.89,ESE,102,0.0,0.0,97,0.00,,,0.03,Wunderground v.1.15,2013-05-27 15:05:00,
2013-05-27 10:15:00,62.3,61.1,29.89,ESE,116,0.0,0.0,96,0.00,,,0.03,Wunderground v.1.15,2013-05-27 15:15:00,
2013-05-27 10:20:00,62.1,60.9,29.88,SSE,160,0.0,0.0,96,0.00,,,0.03,Wunderground v.1.15,2013-05-27 15:20:00,
2013-05-27 10:25:00,62.5,61.3,29.88,SSE,160,0.0,0.0,96,0.00,,,0.03,Wunderground v.1.15,2013-05-27 15:25:00,
2013-05-27 10:30:00,63.1,61.9,29.88,SSE,147,0.0,0.0,96,0.00,,,0.03,Wunderground v.1.15,2013-05-27 15:30:00,
2013-05-27 10:35:00,63.1,61.6,29.88,SE,145,0.0,0.0,95,0.00,,,0.03,Wunderground v.1.15,2013-05-27 15:35:00,
2013-05-27 10:45:00,63.4,61.9,29.88,East,86,0.0,0.0,95,0.00,,,0.03,Wunderground v.1.15,2013-05-27 15:45:00,
2013-05-27 10:50:00,63.7,61.9,29.88,SSE,162,0.0,0.0,94,0.00,,,0.03,Wunderground v.1.15,2013-05-27 15:50:00,
2013-05-27 11:00:00,64.2,62.4,29.88,SE,141,1.0,1.0,94,0.00,,,0.03,Wunderground v.1.15,2013-05-27 16:00:00,
2013-05-27 11:10:00,64.4,62.3,29.89,South,176,1.0,1.0,93,0.00,,,0.03,Wunderground v.1.15,2013-05-27 16:10:00,
2013-05-27 11:20:00,64.9,62.8,29.88,SE,133,0.0,0.0,93,0.00,,,0.03,Wunderground v.1.15,2013-05-27 16:20:00,
2013-05-27 11:30:00,64.9,62.2,29.88,SE,134,0.0,0.0,91,0.00,,,0.03,Wunderground v.1.15,2013-05-27 16:30:00,
2013-05-27 11:35:00,65.4,62.7,29.88,SSE,151,0.0,1.0,91,0.00,,,0.03,Wunderground v.1.15,2013-05-27 16:35:00,
2013-05-27 11:40:00,65.8,63.1,29.88,SE,138,0.0,8.0,91,0.00,,,0.03,Wunderground v.1.15,2013-05-27 16:40:00,
2013-05-27 11:45:00,66.2,63.2,29.88,South,172,1.0,8.0,90,0.00,,,0.03,Wunderground v.1.15,2013-05-27 16:45:00,
2013-05-27 11:50:00,66.0,62.3,29.87,ESE,109,1.0,1.0,88,0.00,,,0.03,Wunderground v.1.15,2013-05-27 16:50:00,
2013-05-27 11:55:00,66.0,62.3,29.87,SE,140,1.0,1.0,88,0.00,,,0.03,Wunderground v.1.15,2013-05-27 16:55:00,
2013-05-27 12:05:00,66.5,62.8,29.87,SE,138,1.0,1.0,88,0.00,,,0.03,Wunderground v.1.15,2013-05-27 17:05:00,
2013-05-27 12:10:00,66.8,63.1,29.87,ENE,68,0.0,1.0,88,0.00,,,0.03,Wunderground v.1.15,2013-05-27 17:10:00,
2013-05-27 12:15:00,67.2,62.9,29.87,ESE,102,0.0,0.0,86,0.00,,,0.03,Wunderground v.1.15,2013-05-27 17:15:00,
2013-05-27 12:20:00,67.2,62.9,29.88,ESE,103,0.0,0.0,86,0.00,,,0.03,Wunderground v.1.15,2013-05-27 17:20:00,
2013-05-27 12:25:00,67.3,63.0,29.88,East,95,0.0,0.0,86,0.00,,,0.03,Wunderground v.1.15,2013-05-27 17:25:00,
2013-05-27 12:30:00,67.8,63.5,29.88,SE,136,1.0,1.0,86,0.00,,,0.03,Wunderground v.1.15,2013-05-27 17:30:00,
2013-05-27 12:40:00,68.3,63.6,29.88,SSE,148,1.0,1.0,85,0.00,,,0.03,Wunderground v.1.15,2013-05-27 17:40:00,
2013-05-27 12:45:00,68.5,63.8,29.88,SSE,150,1.0,2.0,85,0.00,,,0.03,Wunderground v.1.15,2013-05-27 17:45:00,
2013-05-27 12:50:00,68.2,63.5,29.89,ESE,109,1.0,1.0,85,0.00,,,0.03,Wunderground v.1.15,2013-05-27 17:50:00,
2013-05-27 12:55:00,68.0,63.3,29.89,South,174,1.0,1.0,85,0.00,,,0.03,Wunderground v.1.15,2013-05-27 17:55:00,
2013-05-27 13:00:00,68.0,63.3,29.89,South,188,0.0,0.0,85,0.00,,,0.03,Wunderground v.1.15,2013-05-27 18:00:00,
2013-05-27 13:05:00,67.8,63.1,29.89,SSE,152,0.0,0.0,85,0.00,,,0.03,Wunderground v.1.15,2013-05-27 18:05:00,
2013-05-27 13:15:00,67.5,63.2,29.89,SSW,202,1.0,6.0,86,0.00,,,0.03,Wunderground v.1.15,2013-05-27 18:15:00,
2013-05-27 13:25:00,67.3,63.6,29.88,SSW,213,1.0,1.0,88,0.00,,,0.04,Wunderground v.1.15,2013-05-27 18:25:00,
2013-05-27 13:30:00,67.3,63.6,29.88,SSW,206,0.0,1.0,88,0.06,,,0.05,Wunderground v.1.15,2013-05-27 18:30:00,
2013-05-27 13:40:00,67.2,64.2,29.87,SE,136,0.0,0.0,90,0.05,,,0.05,Wunderground v.1.15,2013-05-27 18:40:00,
2013-05-27 13:50:00,67.2,64.8,29.85,SSE,152,0.0,0.0,92,0.00,,,0.06,Wunderground v.1.15,2013-05-27 18:50:00,
2013-05-27 14:00:00,67.2,64.8,29.85,SE,130,1.0,1.0,92,0.00,,,0.06,Wunderground v.1.15,2013-05-27 19:00:00,
2013-05-27 14:15:00,66.7,64.6,29.80,NNE,18,0.0,0.0,93,0.00,,,0.06,Wunderground v.1.15,2013-05-27 19:15:00,
2013-05-27 14:20:00,66.7,64.6,29.80,East,86,1.0,1.0,93,0.00,,,0.06,Wunderground v.1.15,2013-05-27 19:20:00,
2013-05-27 14:25:00,66.5,64.4,29.80,South,184,1.0,1.0,93,0.00,,,0.06,Wunderground v.1.15,2013-05-27 19:25:00,
2013-05-27 14:30:00,66.7,64.9,29.80,SSE,147,1.0,6.0,94,0.00,,,0.06,Wunderground v.1.15,2013-05-27 19:30:00,
2013-05-27 14:35:00,66.8,64.7,29.81,SE,141,1.0,1.0,93,0.00,,,0.06,Wunderground v.1.15,2013-05-27 19:35:00,
2013-05-27 14:40:00,66.8,64.7,29.81,SE,141,0.0,1.0,93,0.00,,,0.06,Wunderground v.1.15,2013-05-27 19:40:00,
2013-05-27 14:50:00,67.2,64.8,29.78,SSW,193,1.0,1.0,92,0.00,,,0.06,Wunderground v.1.15,2013-05-27 19:50:00,
2013-05-27 15:00:00,67.8,65.4,29.78,SSE,150,0.0,0.0,92,0.00,,,0.06,Wunderground v.1.15,2013-05-27 20:00:00,
2013-05-27 15:10:00,68.2,65.5,29.79,East,90,0.0,0.0,91,0.00,,,0.06,Wunderground v.1.15,2013-05-27 20:10:00,
2013-05-27 15:15:00,68.3,65.3,29.79,SSE,148,0.0,0.0,90,0.00,,,0.06,Wunderground v.1.15,2013-05-27 20:15:00,
2013-05-27 15:20:00,68.3,64.9,29.78,ENE,78,0.0,0.0,89,0.00,,,0.06,Wunderground v.1.15,2013-05-27 20:20:00,
2013-05-27 15:25:00,68.3,64.9,29.78,ENE,65,0.0,0.0,89,0.00,,,0.06,Wunderground v.1.15,2013-05-27 20:25:00,
2013-05-27 15:35:00,68.5,64.8,29.76,SSE,160,0.0,0.0,88,0.00,,,0.06,Wunderground v.1.15,2013-05-27 20:35:00,
2013-05-27 15:45:00,68.3,64.3,29.76,ENE,64,0.0,0.0,87,0.00,,,0.06,Wunderground v.1.15,2013-05-27 20:45:00,
2013-05-27 15:55:00,68.2,64.2,29.76,ENE,69,0.0,0.0,87,0.00,,,0.06,Wunderground v.1.15,2013-05-27 20:55:00,
2013-05-27 16:00:00,68.3,64.3,29.76,SE,130,0.0,0.0,87,0.00,,,0.06,Wunderground v.1.15,2013-05-27 21:00:00,
2013-05-27 16:05:00,68.5,64.1,29.76,NE,40,1.0,1.0,86,0.00,,,0.06,Wunderground v.1.15,2013-05-27 21:05:00,
2013-05-27 16:10:00,68.7,64.3,29.76,ESE,107,1.0,1.0,86,0.00,,,0.06,Wunderground v.1.15,2013-05-27 21:10:00,
2013-05-27 16:20:00,69.0,64.6,29.75,East,97,1.0,1.0,86,0.00,,,0.06,Wunderground v.1.15,2013-05-27 21:20:00,
2013-05-27 16:25:00,68.8,64.1,29.75,East,99,0.0,1.0,85,0.00,,,0.06,Wunderground v.1.15,2013-05-27 21:25:00,
2013-05-27 16:40:00,69.0,64.3,29.75,ESE,102,0.0,2.0,85,0.00,,,0.07,Wunderground v.1.15,2013-05-27 21:40:00,
2013-05-27 16:50:00,69.3,64.3,29.76,NNE,28,1.0,1.0,84,0.00,,,0.07,Wunderground v.1.15,2013-05-27 21:50:00,
2013-05-27 17:00:00,69.3,64.3,29.76,East,96,0.0,0.0,84,0.00,,,0.07,Wunderground v.1.15,2013-05-27 22:00:00,
2013-05-27 17:05:00,69.2,64.2,29.74,ESE,110,0.0,0.0,84,0.00,,,0.07,Wunderground v.1.15,2013-05-27 22:05:00,
2013-05-27 17:15:00,69.2,64.2,29.74,SSE,150,0.0,0.0,84,0.00,,,0.07,Wunderground v.1.15,2013-05-27 22:15:00,
2013-05-27 17:25:00,69.2,64.2,29.75,ENE,75,0.0,0.0,84,0.00,,,0.07,Wunderground v.1.15,2013-05-27 22:25:00,
2013-05-27 17:40:00,69.3,63.9,29.75,SSE,155,0.0,0.0,83,0.00,,,0.07,Wunderground v.1.15,2013-05-27 22:40:00,
2013-05-27 17:50:00,69.8,64.4,29.74,ENE,76,0.0,0.0,83,0.00,,,0.07,Wunderground v.1.15,2013-05-27 22:50:00,
2013-05-27 18:00:00,70.0,64.2,29.74,SSW,209,0.0,0.0,82,0.00,,,0.07,Wunderground v.1.15,2013-05-27 23:00:00,
2013-05-27 18:10:00,70.2,64.1,29.75,ENE,58,1.0,1.0,81,0.00,,,0.07,Wunderground v.1.15,2013-05-27 23:10:00,
2013-05-27 18:20:00,70.5,64.7,29.75,South,184,0.0,4.0,82,0.00,,,0.07,Wunderground v.1.15,2013-05-27 23:20:00,
2013-05-27 18:25:00,70.5,64.4,29.75,East,83,1.0,4.0,81,0.00,,,0.07,Wunderground v.1.15,2013-05-27 23:25:00,
2013-05-27 18:30:00,70.3,63.8,29.75,SSE,165,1.0,4.0,80,0.00,,,0.07,Wunderground v.1.15,2013-05-27 23:30:00,
2013-05-27 18:40:00,69.8,63.7,29.75,ESE,113,1.0,1.0,81,0.00,,,0.07,Wunderground v.1.15,2013-05-27 23:40:00,
2013-05-27 18:50:00,69.7,63.6,29.75,SSE,148,1.0,1.0,81,0.00,,,0.07,Wunderground v.1.15,2013-05-27 23:50:00,
2013-05-27 18:55:00,69.7,63.3,29.75,ESE,102,1.0,1.0,80,0.00,,,0.07,Wunderground v.1.15,2013-05-27 23:55:00,
2013-05-27 19:05:00,69.7,63.6,29.75,SE,140,0.0,0.0,81,0.00,,,0.07,Wunderground v.1.15,2013-05-28 00:05:00,
2013-05-27 19:10:00,69.7,63.6,29.75,North,32767,-999.0,0.0,81,0.00,,,0.07,Wunderground v.1.15,2013-05-28 00:10:00,
2013-05-27 19:19:00,69.3,63.2,29.76,North,32767,-999.0,0.0,81,0.00,,,0.07,Wunderground v.1.15,2013-05-28 00:19:00,
2013-05-27 19:25:00,69.3,63.2,29.76,North,32767,-999.0,0.0,81,0.00,,,0.07,Wunderground v.1.15,2013-05-28 00:25:00,
2013-05-27 19:35:00,68.8,63.1,29.76,North,32767,-999.0,0.0,82,0.00,,,0.07,Wunderground v.1.15,2013-05-28 00:35:00,